Time,TemperatureF,DewpointF,PressureIn,WindDirection,WindDirectionDegrees,WindSpeedMPH,WindSpeedGustMPH,Humidity,HourlyPrecipIn,Conditions,Clouds,dailyrainin,SolarRadiationWatts/m^2,SoftwareType,DateUTC
2013-01-30 00:21:00,44.0,41.0,-100.00,West,261,3.0,6.0,88,0.00,,,0.00,0.000000,,2013-01-30 08:21:00,
2013-01-30 00:32:00,44.0,41.0,-100.00,West,261,3.0,6.0,88,0.00,,,0.00,0.000000,,2013-01-30 08:32:00,
2013-01-30 00:42:00,44.0,41.0,-100.00,West,261,3.0,6.0,88,0.00,,,0.00,0.000000,,2013-01-30 08:42:00,
2013-01-30 00:52:00,44.0,41.0,-100.00,West,261,3.0,6.0,88,0.00,,,0.00,0.000000,,2013-01-30 08:52:00,
2013-01-30 01:21:00,40.0,36.0,-100.00,ESE,114,4.0,6.0,85,0.00,,,0.00,0.000000,,2013-01-30 09:21:00,
2013-01-30 01:32:00,40.0,36.0,-100.00,ESE,114,4.0,6.0,85,0.00,,,0.00,0.000000,,2013-01-30 09:32:00,
2013-01-30 01:41:00,40.0,36.0,-100.00,ESE,114,4.0,6.0,85,0.00,,,0.00,0.000000,,2013-01-30 09:41:00,
2013-01-30 01:51:00,40.0,36.0,-100.00,ESE,114,4.0,6.0,85,0.00,,,0.00,0.000000,,2013-01-30 09:51:00,
2013-01-30 02:21:00,41.0,37.0,-100.00,South,183,3.0,5.0,87,0.00,,,0.00,0.000000,,2013-01-30 10:21:00,
2013-01-30 02:31:00,41.0,37.0,-100.00,South,183,3.0,5.0,87,0.00,,,0.00,0.000000,,2013-01-30 10:31:00,
2013-01-30 02:41:00,41.0,37.0,-100.00,South,183,3.0,5.0,87,0.00,,,0.00,0.000000,,2013-01-30 10:41:00,
2013-01-30 02:52:00,41.0,37.0,-100.00,South,183,3.0,5.0,87,0.00,,,0.00,0.000000,,2013-01-30 10:52:00,
2013-01-30 03:22:00,47.0,35.0,-100.00,North,350,3.0,9.0,64,0.00,,,0.00,0.000000,,2013-01-30 11:22:00,
2013-01-30 03:32:00,47.0,35.0,-100.00,North,350,3.0,9.0,64,0.00,,,0.00,0.000000,,2013-01-30 11:32:00,
2013-01-30 03:42:00,47.0,35.0,-100.00,North,350,3.0,9.0,64,0.00,,,0.00,0.000000,,2013-01-30 11:42:00,
2013-01-30 03:52:00,47.0,35.0,-100.00,North,350,3.0,9.0,64,0.00,,,0.00,0.000000,,2013-01-30 11:52:00,
2013-01-30 04:22:00,40.0,36.0,-100.00,SE,143,2.0,6.0,84,0.00,,,-99.99,0.000000,,2013-01-30 12:22:00,
2013-01-30 04:32:00,40.0,36.0,-100.00,SE,143,2.0,6.0,84,0.00,,,-99.99,0.000000,,2013-01-30 12:32:00,
2013-01-30 04:42:00,40.0,36.0,-100.00,SE,143,2.0,6.0,84,0.00,,,-99.99,0.000000,,2013-01-30 12:42:00,
2013-01-30 05:22:00,41.0,36.0,-100.00,WNW,289,1.0,4.0,82,0.00,,,0.00,0.000000,,2013-01-30 13:22:00,
2013-01-30 05:32:00,41.0,36.0,-100.00,WNW,289,1.0,4.0,82,0.00,,,0.00,0.000000,,2013-01-30 13:32:00,
2013-01-30 05:42:00,41.0,36.0,-100.00,WNW,289,1.0,4.0,82,0.00,,,0.00,0.000000,,2013-01-30 13:42:00,
2013-01-30 05:52:00,41.0,36.0,-100.00,WNW,289,1.0,4.0,82,0.00,,,0.00,0.000000,,2013-01-30 13:52:00,
2013-01-30 06:22:00,39.0,35.0,-100.00,SSW,209,2.0,4.0,86,0.00,,,0.00,0.000000,,2013-01-30 14:22:00,
2013-01-30 06:32:00,39.0,35.0,-100.00,SSW,209,2.0,4.0,86,0.00,,,0.00,0.000000,,2013-01-30 14:32:00,
2013-01-30 06:42:00,39.0,35.0,-100.00,SSW,209,2.0,4.0,86,0.00,,,0.00,0.000000,,2013-01-30 14:42:00,
2013-01-30 06:52:00,39.0,35.0,-100.00,SSW,209,2.0,4.0,86,0.00,,,0.00,0.000000,,2013-01-30 14:52:00,
2013-01-30 07:23:00,38.0,35.0,-100.00,SE,142,2.0,5.0,88,0.00,,,0.00,0.000000,,2013-01-30 15:23:00,
2013-01-30 07:33:00,38.0,35.0,-100.00,SE,142,2.0,5.0,88,0.00,,,0.00,0.000000,,2013-01-30 15:33:00,
2013-01-30 07:43:00,38.0,35.0,-100.00,SE,142,2.0,5.0,88,0.00,,,0.00,0.000000,,2013-01-30 15:43:00,
2013-01-30 07:52:00,38.0,35.0,-100.00,SE,142,2.0,5.0,88,0.00,,,0.00,0.000000,,2013-01-30 15:52:00,
2013-01-30 08:23:00,36.0,35.0,-100.00,SE,136,2.0,4.0,96,0.00,,,0.00,22.000000,,2013-01-30 16:23:00,
2013-01-30 08:32:00,36.0,35.0,-100.00,SE,136,2.0,4.0,96,0.00,,,0.00,22.000000,,2013-01-30 16:32:00,
2013-01-30 08:42:00,36.0,35.0,-100.00,SE,136,2.0,4.0,96,0.00,,,0.00,22.000000,,2013-01-30 16:42:00,
2013-01-30 08:51:00,36.0,35.0,-100.00,SE,136,2.0,4.0,96,0.00,,,0.00,22.000000,,2013-01-30 16:51:00,
2013-01-30 09:22:00,43.0,40.0,-100.00,SSE,157,2.0,4.0,89,0.00,,,0.00,102.000000,,2013-01-30 17:22:00,
2013-01-30 09:32:00,43.0,40.0,-100.00,SSE,157,2.0,4.0,89,0.00,,,0.00,102.000000,,2013-01-30 17:32:00,
2013-01-30 09:42:00,43.0,40.0,-100.00,SSE,157,2.0,4.0,89,0.00,,,0.00,102.000000,,2013-01-30 17:42:00,
2013-01-30 09:52:00,43.0,40.0,-100.00,SSE,157,2.0,4.0,89,0.00,,,0.00,102.000000,,2013-01-30 17:52:00,
2013-01-30 10:22:00,49.0,39.0,-100.00,East,88,3.0,5.0,68,0.00,,,0.00,342.000000,,2013-01-30 18:22:00,
2013-01-30 10:33:00,49.0,39.0,-100.00,East,88,3.0,5.0,68,0.00,,,0.00,342.000000,,2013-01-30 18:33:00,
2013-01-30 10:42:00,49.0,39.0,-100.00,East,88,3.0,5.0,68,0.00,,,0.00,342.000000,,2013-01-30 18:42:00,
2013-01-30 10:51:00,49.0,39.0,-100.00,East,88,3.0,5.0,68,0.00,,,0.00,342.000000,,2013-01-30 18:51:00,
2013-01-30 11:22:00,53.0,41.0,-100.00,East,80,4.0,6.0,63,0.00,,,0.00,459.000000,,2013-01-30 19:22:00,
2013-01-30 11:32:00,53.0,41.0,-100.00,East,80,4.0,6.0,63,0.00,,,0.00,459.000000,,2013-01-30 19:32:00,
2013-01-30 11:42:00,53.0,41.0,-100.00,East,80,4.0,6.0,63,0.00,,,0.00,459.000000,,2013-01-30 19:42:00,
2013-01-30 11:52:00,53.0,41.0,-100.00,East,80,4.0,6.0,63,0.00,,,0.00,459.000000,,2013-01-30 19:52:00,
2013-01-30 12:22:00,57.0,41.0,-100.00,SSW,197,4.0,6.0,56,0.00,,,0.00,555.000000,,2013-01-30 20:22:00,
2013-01-30 12:33:00,57.0,41.0,-100.00,SSW,197,4.0,6.0,56,0.00,,,0.00,555.000000,,2013-01-30 20:33:00,
2013-01-30 12:42:00,57.0,41.0,-100.00,SSW,197,4.0,6.0,56,0.00,,,0.00,555.000000,,2013-01-30 20:42:00,
2013-01-30 12:52:00,57.0,41.0,-100.00,SSW,197,4.0,6.0,56,0.00,,,0.00,555.000000,,2013-01-30 20:52:00,
2013-01-30 13:22:00,58.0,41.0,-100.00,WSW,241,4.0,9.0,54,0.00,,,0.00,589.000000,,2013-01-30 21:22:00,
2013-01-30 13:32:00,58.0,41.0,-100.00,WSW,241,4.0,9.0,54,0.00,,,0.00,589.000000,,2013-01-30 21:32:00,
2013-01-30 13:42:00,58.0,41.0,-100.00,WSW,241,4.0,9.0,54,0.00,,,0.00,589.000000,,2013-01-30 21:42:00,
2013-01-30 13:52:00,58.0,41.0,-100.00,WSW,241,4.0,9.0,54,0.00,,,0.00,589.000000,,2013-01-30 21:52:00,
2013-01-30 14:22:00,58.0,41.0,-100.00,SSW,209,6.0,11.0,53,0.00,,,0.00,553.000000,,2013-01-30 22:22:00,
2013-01-30 14:32:00,58.0,41.0,-100.00,SSW,209,6.0,11.0,53,0.00,,,0.00,553.000000,,2013-01-30 22:32:00,
2013-01-30 14:41:00,58.0,41.0,-100.00,SSW,209,6.0,11.0,53,0.00,,,0.00,553.000000,,2013-01-30 22:41:00,
2013-01-30 14:52:00,58.0,41.0,-100.00,SSW,209,6.0,11.0,53,0.00,,,0.00,553.000000,,2013-01-30 22:52:00,
2013-01-30 15:22:00,59.0,42.0,-100.00,WSW,240,4.0,10.0,53,0.00,,,0.00,459.000000,,2013-01-30 23:22:00,
2013-01-30 15:32:00,59.0,42.0,-100.00,WSW,240,4.0,10.0,53,0.00,,,0.00,459.000000,,2013-01-30 23:32:00,
2013-01-30 15:42:00,59.0,42.0,-100.00,WSW,240,4.0,10.0,53,0.00,,,0.00,459.000000,,2013-01-30 23:42:00,
2013-01-30 15:52:00,59.0,42.0,-100.00,WSW,240,4.0,10.0,53,0.00,,,0.00,459.000000,,2013-01-30 23:52:00,
2013-01-30 16:21:00,58.0,41.0,-100.00,SSW,192,5.0,7.0,53,0.00,,,0.00,236.000000,,2013-01-31 00:21:00,
2013-01-30 16:32:00,58.0,41.0,-100.00,SSW,192,5.0,7.0,53,0.00,,,0.00,236.000000,,2013-01-31 00:32:00,
2013-01-30 16:42:00,58.0,41.0,-100.00,SSW,192,5.0,7.0,53,0.00,,,0.00,236.000000,,2013-01-31 00:42:00,
2013-01-30 16:52:00,58.0,41.0,-100.00,SSW,192,5.0,7.0,53,0.00,,,0.00,236.000000,,2013-01-31 00:52:00,
2013-01-30 17:21:00,56.0,40.0,-100.00,WSW,250,3.0,7.0,55,0.00,,,0.00,118.000000,,2013-01-31 01:21:00,
2013-01-30 17:31:00,56.0,40.0,-100.00,WSW,250,3.0,7.0,55,0.00,,,0.00,118.000000,,2013-01-31 01:31:00,
2013-01-30 17:41:00,56.0,40.0,-100.00,WSW,250,3.0,7.0,55,0.00,,,0.00,118.000000,,2013-01-31 01:41:00,
2013-01-30 17:52:00,56.0,40.0,-100.00,WSW,250,3.0,7.0,55,0.00,,,0.00,118.000000,,2013-01-31 01:52:00,
2013-01-30 18:21:00,49.0,38.0,-100.00,West,261,1.0,5.0,66,0.00,,,0.00,6.000000,,2013-01-31 02:21:00,
2013-01-30 18:32:00,49.0,38.0,-100.00,West,261,1.0,5.0,66,0.00,,,0.00,6.000000,,2013-01-31 02:32:00,
2013-01-30 18:41:00,49.0,38.0,-100.00,West,261,1.0,5.0,66,0.00,,,0.00,6.000000,,2013-01-31 02:41:00,
2013-01-30 18:52:00,49.0,38.0,-100.00,West,261,1.0,5.0,66,0.00,,,0.00,6.000000,,2013-01-31 02:52:00,
2013-01-30 19:21:00,45.0,40.0,-100.00,WSW,242,0.0,3.0,81,0.00,,,0.00,0.000000,,2013-01-31 03:21:00,
2013-01-30 19:32:00,45.0,40.0,-100.00,WSW,242,0.0,3.0,81,0.00,,,0.00,0.000000,,2013-01-31 03:32:00,
2013-01-30 19:41:00,45.0,40.0,-100.00,WSW,242,0.0,3.0,81,0.00,,,0.00,0.000000,,2013-01-31 03:41:00,
2013-01-30 19:51:00,45.0,40.0,-100.00,WSW,242,0.0,3.0,81,0.00,,,0.00,0.000000,,2013-01-31 03:51:00,
2013-01-30 20:22:00,44.0,40.0,-100.00,SE,140,3.0,4.0,85,0.00,,,0.00,0.000000,,2013-01-31 04:22:00,
2013-01-30 20:31:00,44.0,40.0,-100.00,SE,140,3.0,4.0,85,0.00,,,0.00,0.000000,,2013-01-31 04:31:00,
2013-01-30 20:41:00,44.0,40.0,-100.00,SE,140,3.0,4.0,85,0.00,,,0.00,0.000000,,2013-01-31 04:41:00,
2013-01-30 20:51:00,44.0,40.0,-100.00,SE,140,3.0,4.0,85,0.00,,,0.00,0.000000,,2013-01-31 04:51:00,
2013-01-30 21:22:00,43.0,41.0,-100.00,South,178,2.0,4.0,92,0.00,,,0.00,0.000000,,2013-01-31 05:22:00,
2013-01-30 21:31:00,43.0,41.0,-100.00,South,178,2.0,4.0,92,0.00,,,0.00,0.000000,,2013-01-31 05:31:00,
2013-01-30 21:41:00,43.0,41.0,-100.00,South,178,2.0,4.0,92,0.00,,,0.00,0.000000,,2013-01-31 05:41:00,
2013-01-30 21:51:00,43.0,41.0,-100.00,South,178,2.0,4.0,92,0.00,,,0.00,0.000000,,2013-01-31 05:51:00,